Southbridge, Massachusetts
Current Conditions -  °F | °C
As of 10:15 AM on Wednesday 22 Oct 2014 (Local Time) from KORH Reporting Station
Light Rain Light Rain  
Wind Chill: 42°   Ceiling: 200
Heat Index: 48°   Visibility: 4mi
Dew Point: 47°   Wind: 15mph
Humidity: 96%   Direction: 30°NNE
Pressure: 30.01"   Gusts: 29mph
Location:  42.07°N, 72.03°W
Report Text: KORH 221415Z 03013G25KT 4SM -RA BR OVC002 09/08 A3001 RMK AO2 P0000 T00890083
Loading
Personal Weather Stations






























Interactive Weather Map New forecast layout! Learn more

10-Day Weather Forecast

Advertisements
Track Severe Weather on mobile